createdAt,value
2023-02-09T00:00:25.871Z,1.00
2023-02-09T00:02:52.463Z,1.00
2023-02-09T00:05:19.268Z,1.00
2023-02-09T00:07:45.884Z,1.00
2023-02-09T00:10:12.536Z,1.00
2023-02-09T00:12:57.629Z,1.00
2023-02-09T00:15:24.210Z,1.00
2023-02-09T00:17:50.788Z,1.00
2023-02-09T00:20:17.617Z,1.00
2023-02-09T00:22:44.186Z,1.00
2023-02-09T00:25:10.822Z,1.00
2023-02-09T00:27:37.422Z,8.70
2023-02-09T00:30:04.743Z,18.10
2023-02-09T00:32:32.982Z,99.90
2023-02-09T00:34:59.646Z,99.90
2023-02-09T00:37:27.991Z,99.90
2023-02-09T00:39:54.586Z,96.20
2023-02-09T00:42:21.197Z,99.90
2023-02-09T00:44:47.860Z,99.90
2023-02-09T00:47:14.778Z,99.90
2023-02-09T00:49:41.467Z,99.90
2023-02-09T00:52:09.896Z,99.90
2023-02-09T00:54:37.037Z,99.90
2023-02-09T00:57:05.414Z,99.90
2023-02-09T00:59:35.145Z,99.90
2023-02-09T01:02:02.860Z,99.90
2023-02-09T01:04:29.549Z,1.00
2023-02-09T01:06:56.285Z,1.00
2023-02-09T01:09:22.952Z,1.00
2023-02-09T01:11:49.605Z,1.00
2023-02-09T01:14:16.895Z,1.00
2023-02-09T01:16:43.645Z,1.00
2023-02-09T01:19:13.136Z,1.00
2023-02-09T01:21:39.878Z,1.00
2023-02-09T01:24:06.821Z,99.90
2023-02-09T01:26:33.695Z,99.90
2023-02-09T01:29:00.362Z,1.00
2023-02-09T01:31:33.960Z,99.90
2023-02-09T01:34:02.838Z,1.00
2023-02-09T01:36:31.164Z,1.00
2023-02-09T01:39:00.299Z,1.00
2023-02-09T01:41:27.506Z,1.00
2023-02-09T01:44:06.391Z,1.00
2023-02-09T01:46:34.980Z,1.00
2023-02-09T01:49:15.084Z,1.00
2023-02-09T01:51:54.418Z,99.90
2023-02-09T01:54:49.976Z,99.90
2023-02-09T01:57:23.442Z,99.90
2023-02-09T01:59:56.348Z,99.90
2023-02-09T02:02:23.440Z,99.90
2023-02-09T02:04:51.126Z,99.90
2023-02-09T02:07:28.020Z,1.00
2023-02-09T02:09:54.754Z,1.00
2023-02-09T02:12:22.154Z,1.00
2023-02-09T02:14:48.765Z,1.00
2023-02-09T02:17:42.075Z,11.40
2023-02-09T02:20:20.942Z,99.90
2023-02-09T02:22:57.041Z,99.90
2023-02-09T02:26:07.154Z,99.90
2023-02-09T02:29:18.350Z,1.00
2023-02-09T02:32:11.088Z,1.00
2023-02-09T02:34:48.746Z,99.90
2023-02-09T02:37:39.857Z,99.90
2023-02-09T02:40:28.394Z,99.90
2023-02-09T02:43:08.892Z,1.00
2023-02-09T02:46:00.443Z,99.90
2023-02-09T02:48:43.836Z,99.90
2023-02-09T02:51:23.778Z,1.00
2023-02-09T02:53:56.587Z,1.00
2023-02-09T02:56:39.978Z,99.90
2023-02-09T02:59:11.671Z,99.90
2023-02-09T03:01:43.736Z,99.90
2023-02-09T03:04:12.886Z,1.00
2023-02-09T03:06:39.552Z,1.00
2023-02-09T03:09:07.052Z,24.00
2023-02-09T03:11:41.662Z,87.60
2023-02-09T03:14:47.891Z,91.50
2023-02-09T03:17:41.135Z,92.80
2023-02-09T03:20:16.702Z,92.90
2023-02-09T03:22:51.140Z,93.20
2023-02-09T03:25:40.120Z,93.30
2023-02-09T03:28:12.634Z,93.40
2023-02-09T03:30:42.404Z,93.50
2023-02-09T03:33:24.809Z,93.40
2023-02-09T03:35:55.915Z,93.60
2023-02-09T03:38:23.133Z,93.50
2023-02-09T03:40:49.788Z,93.50
2023-02-09T03:43:16.402Z,93.40
2023-02-09T03:45:43.099Z,93.50
2023-02-09T03:48:09.783Z,93.60
2023-02-09T03:50:37.122Z,93.60
2023-02-09T03:53:07.579Z,93.50
2023-02-09T03:55:34.664Z,93.60
2023-02-09T03:58:01.303Z,93.60
2023-02-09T04:00:28.165Z,93.50
2023-02-09T04:02:54.867Z,93.50
2023-02-09T04:05:22.835Z,93.50
2023-02-09T04:07:49.645Z,93.40
2023-02-09T04:10:16.332Z,93.60
2023-02-09T04:12:42.941Z,93.50
2023-02-09T04:15:10.185Z,93.40
2023-02-09T04:17:36.783Z,93.40
2023-02-09T04:20:03.624Z,93.40
2023-02-09T04:22:30.296Z,93.30
2023-02-09T04:24:56.904Z,93.40
2023-02-09T04:27:23.510Z,93.50
2023-02-09T04:29:50.101Z,93.40
2023-02-09T04:32:16.688Z,93.70
2023-02-09T04:34:43.289Z,93.20
2023-02-09T04:37:10.010Z,93.20
2023-02-09T04:39:36.772Z,93.10
2023-02-09T04:42:03.434Z,93.20
2023-02-09T04:44:30.112Z,93.20
2023-02-09T04:46:56.700Z,93.20
2023-02-09T04:49:23.307Z,93.00
2023-02-09T04:51:49.875Z,93.10
2023-02-09T04:54:16.449Z,93.00
2023-02-09T04:56:43.017Z,93.00
2023-02-09T04:59:28.769Z,92.90
2023-02-09T05:01:55.365Z,92.80
2023-02-09T05:04:21.975Z,92.80
2023-02-09T05:06:48.577Z,92.80
2023-02-09T05:09:15.183Z,92.90
2023-02-09T05:11:41.779Z,92.70
2023-02-09T05:14:08.404Z,92.80
2023-02-09T05:16:35.082Z,92.80
2023-02-09T05:19:01.736Z,92.70
2023-02-09T05:21:28.329Z,92.80
2023-02-09T05:23:54.947Z,92.70
2023-02-09T05:26:21.554Z,92.60
2023-02-09T05:28:48.174Z,92.70
2023-02-09T05:31:14.874Z,92.80
2023-02-09T05:33:41.618Z,92.80
2023-02-09T05:36:09.467Z,92.70
2023-02-09T05:38:36.630Z,92.80
2023-02-09T05:41:36.532Z,92.70
2023-02-09T05:44:04.303Z,92.60
2023-02-09T05:46:31.131Z,92.70
2023-02-09T05:48:57.789Z,92.40
2023-02-09T05:51:24.480Z,92.50
2023-02-09T05:53:53.308Z,92.30
2023-02-09T05:56:20.031Z,92.40
2023-02-09T05:58:46.639Z,92.00
2023-02-09T06:01:13.469Z,92.30
2023-02-09T06:03:40.142Z,92.30
2023-02-09T06:06:07.072Z,92.10
2023-02-09T06:08:33.691Z,92.10
2023-02-09T06:11:02.557Z,92.00
2023-02-09T06:13:29.231Z,92.30
2023-02-09T06:15:55.906Z,92.10
2023-02-09T06:18:22.550Z,92.20
2023-02-09T06:20:49.244Z,92.10
2023-02-09T06:23:15.826Z,91.90
2023-02-09T06:25:42.447Z,92.10
2023-02-09T06:28:09.107Z,92.10
2023-02-09T06:30:35.846Z,92.40
2023-02-09T06:33:02.580Z,92.30
2023-02-09T06:35:29.211Z,92.20
2023-02-09T06:37:59.181Z,92.10
2023-02-09T06:40:25.837Z,92.10
2023-02-09T06:42:52.481Z,92.40
2023-02-09T06:45:19.367Z,92.10
2023-02-09T06:47:46.918Z,92.40
2023-02-09T06:50:17.654Z,92.10
2023-02-09T06:52:45.004Z,92.20
2023-02-09T06:55:11.681Z,92.30
2023-02-09T06:57:38.783Z,92.30
2023-02-09T07:00:08.243Z,92.20
2023-02-09T07:02:35.442Z,92.20
2023-02-09T07:05:02.156Z,92.00
2023-02-09T07:07:28.759Z,91.90
2023-02-09T07:09:55.348Z,92.20
2023-02-09T07:12:22.412Z,92.00
2023-02-09T07:14:49.031Z,92.20
2023-02-09T07:17:15.691Z,92.10
2023-02-09T07:19:42.259Z,92.00
2023-02-09T07:22:08.973Z,92.30
2023-02-09T07:24:35.683Z,92.30
2023-02-09T07:27:04.631Z,92.20
2023-02-09T07:29:31.890Z,92.20
2023-02-09T07:31:59.133Z,92.00
2023-02-09T07:34:26.129Z,92.00
2023-02-09T07:36:52.744Z,92.30
2023-02-09T07:39:19.470Z,92.10
2023-02-09T07:41:46.123Z,92.10
2023-02-09T07:44:12.759Z,92.00
2023-02-09T07:46:39.453Z,92.20
2023-02-09T07:49:06.143Z,92.00
2023-02-09T07:51:34.289Z,91.90
2023-02-09T07:54:01.221Z,92.00
2023-02-09T07:56:28.636Z,91.80
2023-02-09T07:58:55.822Z,91.90
2023-02-09T08:01:23.054Z,92.00
2023-02-09T08:03:50.418Z,91.70
2023-02-09T08:06:42.486Z,91.80
2023-02-09T08:09:11.514Z,91.90
2023-02-09T08:11:49.774Z,91.70
2023-02-09T08:14:21.974Z,91.80
2023-02-09T08:16:51.270Z,91.80
2023-02-09T08:19:22.748Z,91.80
2023-02-09T08:21:50.079Z,91.70
2023-02-09T08:24:20.217Z,91.60
2023-02-09T08:26:46.957Z,91.80
2023-02-09T08:29:13.699Z,91.80
2023-02-09T08:31:40.723Z,91.40
2023-02-09T08:34:07.416Z,91.50
2023-02-09T08:36:37.346Z,91.60
2023-02-09T08:39:05.245Z,91.80
2023-02-09T08:41:31.985Z,91.60
2023-02-09T08:43:58.569Z,91.10
2023-02-09T08:46:25.404Z,91.30
2023-02-09T08:48:52.896Z,91.50
2023-02-09T08:51:19.613Z,91.70
2023-02-09T08:53:52.289Z,91.60
2023-02-09T08:56:21.063Z,91.40
2023-02-09T08:58:48.153Z,91.40
2023-02-09T09:01:16.864Z,91.20
2023-02-09T09:03:43.648Z,90.90
2023-02-09T09:06:11.871Z,90.70
2023-02-09T09:08:39.860Z,91.00
2023-02-09T09:11:12.898Z,90.50
2023-02-09T09:13:40.869Z,90.00
2023-02-09T09:16:13.378Z,89.10
2023-02-09T09:18:40.036Z,89.90
2023-02-09T09:21:06.603Z,89.60
2023-02-09T09:23:33.234Z,89.20
2023-02-09T09:26:04.060Z,92.20
2023-02-09T09:28:31.141Z,89.00
2023-02-09T09:31:01.960Z,88.90
2023-02-09T09:33:28.630Z,88.10
2023-02-09T09:35:55.236Z,88.00
2023-02-09T09:38:21.869Z,88.60
2023-02-09T09:40:48.640Z,88.50
2023-02-09T09:43:52.780Z,87.90
2023-02-09T09:46:23.607Z,87.80
2023-02-09T09:48:54.444Z,89.20
2023-02-09T09:51:34.097Z,87.60
2023-02-09T09:54:03.189Z,88.00
2023-02-09T09:56:31.627Z,87.60
2023-02-09T09:58:59.821Z,88.00
2023-02-09T10:01:30.649Z,87.30
2023-02-09T10:04:01.416Z,87.90
2023-02-09T10:06:32.717Z,88.60
2023-02-09T10:09:22.146Z,88.60
2023-02-09T10:11:54.808Z,90.80
2023-02-09T10:14:23.663Z,88.00
2023-02-09T10:16:50.664Z,87.20
2023-02-09T10:19:20.842Z,87.90
2023-02-09T10:21:48.913Z,88.10
2023-02-09T10:24:21.096Z,87.80
2023-02-09T10:27:24.262Z,87.90
2023-02-09T10:29:51.037Z,88.00
2023-02-09T10:32:27.797Z,88.90
2023-02-09T10:34:57.776Z,88.10
2023-02-09T10:37:29.634Z,88.40
2023-02-09T10:40:43.589Z,88.40
2023-02-09T10:43:33.743Z,89.40
2023-02-09T10:46:08.331Z,88.60
2023-02-09T10:48:41.129Z,88.60
2023-02-09T10:51:29.905Z,89.50
2023-02-09T10:54:01.097Z,89.60
2023-02-09T10:56:44.275Z,88.50
2023-02-09T10:59:25.620Z,88.30
2023-02-09T11:02:02.553Z,88.10
2023-02-09T11:04:40.300Z,88.60
2023-02-09T11:07:17.872Z,88.70
2023-02-09T11:09:50.260Z,89.50
2023-02-09T11:12:20.256Z,89.70
2023-02-09T11:14:47.034Z,89.60
2023-02-09T11:17:16.924Z,89.00
2023-02-09T11:20:26.734Z,89.10
2023-02-09T11:22:53.347Z,89.60
2023-02-09T11:25:50.682Z,89.10
2023-02-09T11:28:47.335Z,91.80
2023-02-09T11:31:51.753Z,91.50
2023-02-09T11:34:51.623Z,88.50
2023-02-09T11:37:42.424Z,90.10
2023-02-09T11:40:21.117Z,90.20
2023-02-09T11:43:11.077Z,91.10
2023-02-09T11:45:49.941Z,89.60
2023-02-09T11:48:22.517Z,90.00
2023-02-09T11:51:19.307Z,90.10
2023-02-09T11:54:04.576Z,89.90
2023-02-09T11:56:37.578Z,90.00
2023-02-09T11:59:07.715Z,90.00
2023-02-09T12:02:16.723Z,90.30
2023-02-09T12:04:58.585Z,90.10
2023-02-09T12:08:08.763Z,89.70
2023-02-09T12:10:48.550Z,90.10
2023-02-09T12:13:55.817Z,90.30
2023-02-09T12:16:28.218Z,90.20
2023-02-09T12:18:55.428Z,89.90
2023-02-09T12:21:32.444Z,90.10
2023-02-09T12:24:00.841Z,90.10
2023-02-09T12:26:44.239Z,90.40
2023-02-09T12:29:38.216Z,90.80
2023-02-09T12:32:04.862Z,90.70
2023-02-09T12:34:49.704Z,90.30
2023-02-09T12:37:29.069Z,90.50
2023-02-09T12:40:03.369Z,90.60
2023-02-09T12:42:53.134Z,90.70
2023-02-09T12:45:43.194Z,90.90
2023-02-09T12:48:09.937Z,91.10
2023-02-09T12:50:42.630Z,91.00
2023-02-09T12:53:24.683Z,90.90
2023-02-09T12:56:08.948Z,90.80
2023-02-09T12:58:37.922Z,92.10
2023-02-09T13:01:05.705Z,90.70
2023-02-09T13:03:40.489Z,90.90
2023-02-09T13:06:28.357Z,90.90
2023-02-09T13:08:59.292Z,91.10
2023-02-09T13:11:44.466Z,91.20
2023-02-09T13:14:13.266Z,95.80
2023-02-09T13:17:14.427Z,91.20
2023-02-09T13:19:52.632Z,91.50
2023-02-09T13:22:46.183Z,1.00
2023-02-09T13:25:37.250Z,91.50
2023-02-09T13:28:22.593Z,91.80
2023-02-09T13:30:49.466Z,91.80
2023-02-09T13:33:32.979Z,91.60
2023-02-09T13:36:27.482Z,91.60
2023-02-09T13:38:54.415Z,92.00
2023-02-09T13:41:36.179Z,93.60
2023-02-09T13:44:03.585Z,92.10
2023-02-09T13:46:35.069Z,92.10
2023-02-09T13:49:13.363Z,92.00
2023-02-09T13:51:40.196Z,92.30
2023-02-09T13:54:07.160Z,92.30
2023-02-09T13:56:36.920Z,92.40
2023-02-09T13:59:03.891Z,92.40
2023-02-09T14:01:34.055Z,92.60
2023-02-09T14:04:05.415Z,92.70
2023-02-09T14:07:05.403Z,92.70
2023-02-09T14:09:41.152Z,92.90
2023-02-09T14:12:16.576Z,92.50
2023-02-09T14:15:08.832Z,92.80
2023-02-09T14:17:35.697Z,92.80
2023-02-09T14:22:44.391Z,93.30
2023-02-09T14:25:15.307Z,92.80
2023-02-09T14:27:46.830Z,93.00
2023-02-09T14:30:26.354Z,92.80
2023-02-09T14:32:58.523Z,92.80
2023-02-09T14:36:14.937Z,93.40
2023-02-09T14:38:42.797Z,93.10
2023-02-09T14:41:29.121Z,93.50
2023-02-09T14:44:00.915Z,92.80
2023-02-09T14:46:28.099Z,92.70
2023-02-09T14:48:58.141Z,92.90
2023-02-09T14:51:27.506Z,92.70
2023-02-09T14:53:54.481Z,92.90
2023-02-09T14:56:30.088Z,92.90
2023-02-09T14:58:56.687Z,92.70
2023-02-09T15:01:23.425Z,93.00
2023-02-09T15:03:50.140Z,92.90
2023-02-09T15:06:16.846Z,93.00
2023-02-09T15:08:43.872Z,93.10
2023-02-09T15:11:42.726Z,92.80
2023-02-09T15:14:11.371Z,93.00
2023-02-09T15:16:38.179Z,92.90
2023-02-09T15:19:11.736Z,92.70
2023-02-09T15:21:38.437Z,92.60
2023-02-09T15:24:05.381Z,92.80
2023-02-09T15:26:36.356Z,92.90
2023-02-09T15:29:09.285Z,92.70
2023-02-09T15:31:36.082Z,93.00
2023-02-09T15:34:04.641Z,92.70
2023-02-09T15:36:31.478Z,92.80
2023-02-09T15:38:58.977Z,92.90
2023-02-09T15:41:44.357Z,92.90
2023-02-09T15:44:36.049Z,93.10
2023-02-09T15:47:21.285Z,92.80
2023-02-09T15:49:47.925Z,92.90
2023-02-09T15:52:16.279Z,93.10
2023-02-09T15:54:43.642Z,92.90
2023-02-09T15:57:12.817Z,92.90
2023-02-09T15:59:39.609Z,92.80
2023-02-09T16:02:14.382Z,92.90
2023-02-09T16:04:41.134Z,93.00
2023-02-09T16:07:12.567Z,93.20
2023-02-09T16:09:41.271Z,93.10
2023-02-09T16:12:11.147Z,93.20
2023-02-09T16:14:38.427Z,93.20
2023-02-09T16:17:05.528Z,93.40
2023-02-09T16:19:32.424Z,93.20
2023-02-09T16:22:03.045Z,93.80
2023-02-09T16:24:34.904Z,93.90
2023-02-09T16:27:04.432Z,94.00
2023-02-09T16:29:31.215Z,94.40
2023-02-09T16:31:58.457Z,94.10
2023-02-09T16:34:26.808Z,94.10
2023-02-09T16:36:53.513Z,94.00
2023-02-09T16:39:22.191Z,94.10
2023-02-09T16:41:52.641Z,94.00
2023-02-09T16:44:25.727Z,94.00
2023-02-09T16:46:55.260Z,93.90
2023-02-09T16:49:31.693Z,93.90
2023-02-09T16:52:02.473Z,94.40
2023-02-09T16:54:32.979Z,94.40
2023-02-09T16:57:00.839Z,94.80
2023-02-09T16:59:27.617Z,94.80
2023-02-09T17:01:54.494Z,94.50
2023-02-09T17:04:21.167Z,94.70
2023-02-09T17:06:50.777Z,94.40
2023-02-09T17:09:17.521Z,94.60
2023-02-09T17:11:47.335Z,94.50
2023-02-09T17:14:14.554Z,94.70
2023-02-09T17:16:46.047Z,94.60
2023-02-09T17:19:15.722Z,94.60
2023-02-09T17:21:42.582Z,94.40
2023-02-09T17:24:14.651Z,94.30
2023-02-09T17:26:41.883Z,94.30
2023-02-09T17:29:08.997Z,94.40
2023-02-09T17:31:52.389Z,94.40
2023-02-09T17:34:26.781Z,94.40
2023-02-09T17:36:53.545Z,94.40
2023-02-09T17:39:24.182Z,94.40
2023-02-09T17:41:52.733Z,94.40
2023-02-09T17:44:35.370Z,94.30
2023-02-09T17:47:17.548Z,95.00
2023-02-09T17:49:47.427Z,94.70
2023-02-09T17:52:19.078Z,94.40
2023-02-09T17:54:46.800Z,94.70
2023-02-09T17:57:17.721Z,94.50
2023-02-09T17:59:45.894Z,98.80
2023-02-09T18:02:17.932Z,95.80
2023-02-09T18:04:44.613Z,94.50
2023-02-09T18:07:12.692Z,94.50
2023-02-09T18:09:39.403Z,94.70
2023-02-09T18:12:27.235Z,94.70
2023-02-09T18:14:54.053Z,94.90
2023-02-09T18:17:20.927Z,94.90
2023-02-09T18:19:47.519Z,95.30
2023-02-09T18:22:17.114Z,95.00
2023-02-09T18:24:44.102Z,95.00
2023-02-09T18:27:17.232Z,95.90
2023-02-09T18:29:43.962Z,95.50
2023-02-09T18:32:14.368Z,94.80
2023-02-09T18:34:41.290Z,95.30
2023-02-09T18:37:07.946Z,95.60
2023-02-09T18:39:36.670Z,96.70
2023-02-09T18:42:03.409Z,95.90
2023-02-09T18:44:32.242Z,95.40
2023-02-09T18:47:02.412Z,95.70
2023-02-09T18:49:29.825Z,95.50
2023-02-09T18:51:58.846Z,95.70
2023-02-09T18:54:27.698Z,95.50
2023-02-09T18:56:55.375Z,95.70
2023-02-09T18:59:22.010Z,95.50
2023-02-09T19:01:49.843Z,95.60
2023-02-09T19:04:16.507Z,95.60
2023-02-09T19:06:43.108Z,95.60
2023-02-09T19:09:09.723Z,95.70
2023-02-09T19:11:36.365Z,96.10
2023-02-09T19:14:21.610Z,96.20
2023-02-09T19:16:48.334Z,96.30
2023-02-09T19:19:16.051Z,96.10
2023-02-09T19:21:42.761Z,96.40
2023-02-09T19:24:09.395Z,96.20
2023-02-09T19:26:36.433Z,96.50
2023-02-09T19:29:03.060Z,1.00
2023-02-09T19:31:29.795Z,96.10
2023-02-09T19:33:57.588Z,97.30
2023-02-09T19:36:27.524Z,96.30
2023-02-09T19:38:54.966Z,96.30
2023-02-09T19:41:23.355Z,97.60
2023-02-09T19:43:54.725Z,95.70
2023-02-09T19:46:21.498Z,96.20
2023-02-09T19:48:48.578Z,96.40
2023-02-09T19:51:15.438Z,97.00
2023-02-09T19:53:42.342Z,96.80
2023-02-09T19:56:16.731Z,96.80
2023-02-09T19:58:44.323Z,97.20
2023-02-09T20:01:11.432Z,97.90
2023-02-09T20:03:38.870Z,97.40
2023-02-09T20:06:11.398Z,97.90
2023-02-09T20:08:39.310Z,98.60
2023-02-09T20:11:07.675Z,99.10
2023-02-09T20:13:35.084Z,97.90
2023-02-09T20:16:06.494Z,98.30
2023-02-09T20:18:33.118Z,98.70
2023-02-09T20:20:59.738Z,99.30
2023-02-09T20:23:26.340Z,98.70
2023-02-09T20:25:53.248Z,98.80
2023-02-09T20:28:21.208Z,99.90
2023-02-09T20:30:48.329Z,99.00
2023-02-09T20:33:15.318Z,99.20
2023-02-09T20:35:46.061Z,99.90
2023-02-09T20:38:15.779Z,99.50
2023-02-09T20:40:42.805Z,99.60
2023-02-09T20:43:30.054Z,99.50
2023-02-09T20:46:15.696Z,99.20
2023-02-09T20:48:42.355Z,99.50
2023-02-09T20:51:08.979Z,98.90
2023-02-09T20:53:35.586Z,99.60
2023-02-09T20:56:02.185Z,99.20
2023-02-09T20:58:28.797Z,99.40
2023-02-09T21:00:55.500Z,99.90
2023-02-09T21:03:22.138Z,1.00
2023-02-09T21:05:48.785Z,99.30
2023-02-09T21:08:15.450Z,99.40
2023-02-09T21:10:42.181Z,99.90
2023-02-09T21:13:09.707Z,99.20
2023-02-09T21:15:40.578Z,99.90
2023-02-09T21:18:07.549Z,99.00
2023-02-09T21:20:35.099Z,99.70
2023-02-09T21:23:03.251Z,99.40
2023-02-09T21:25:30.302Z,99.70
2023-02-09T21:27:59.535Z,99.60
2023-02-09T21:30:27.396Z,99.60
2023-02-09T21:32:55.261Z,99.50
2023-02-09T21:35:22.704Z,99.90
2023-02-09T21:37:49.387Z,99.60
2023-02-09T21:40:16.249Z,99.90
2023-02-09T21:42:43.361Z,99.90
2023-02-09T21:45:10.004Z,99.90
2023-02-09T21:47:38.795Z,99.50
2023-02-09T21:50:08.285Z,99.90
2023-02-09T21:52:35.716Z,99.90
2023-02-09T21:55:02.919Z,99.90
2023-02-09T21:57:29.647Z,99.90
2023-02-09T21:59:56.643Z,99.90
2023-02-09T22:02:23.281Z,99.90
2023-02-09T22:04:50.268Z,99.90
2023-02-09T22:07:16.924Z,99.90
2023-02-09T22:09:43.534Z,99.90
2023-02-09T22:12:10.149Z,99.90
2023-02-09T22:14:37.098Z,99.90
2023-02-09T22:17:03.765Z,99.90
2023-02-09T22:19:30.414Z,99.90
2023-02-09T22:21:57.958Z,99.90
2023-02-09T22:24:25.223Z,99.90
2023-02-09T22:26:51.960Z,99.90
2023-02-09T22:29:18.957Z,99.90
2023-02-09T22:31:46.224Z,99.90
2023-02-09T22:34:13.179Z,99.90
2023-02-09T22:36:40.085Z,99.90
2023-02-09T22:39:07.458Z,99.90
2023-02-09T22:41:34.499Z,99.90
2023-02-09T22:44:03.612Z,99.90
2023-02-09T22:46:33.024Z,99.90
2023-02-09T22:49:02.551Z,99.90
2023-02-09T22:51:30.574Z,99.90
2023-02-09T22:53:58.593Z,99.90
2023-02-09T22:56:26.772Z,99.90
2023-02-09T22:58:54.275Z,99.90
2023-02-09T23:01:21.517Z,99.90
2023-02-09T23:03:48.595Z,99.90
2023-02-09T23:06:18.718Z,99.90
2023-02-09T23:08:45.398Z,99.90
2023-02-09T23:11:14.934Z,99.90
2023-02-09T23:13:42.321Z,99.90
2023-02-09T23:16:14.841Z,99.90
2023-02-09T23:18:47.141Z,99.90
2023-02-09T23:21:14.373Z,99.90
2023-02-09T23:23:41.105Z,99.90
2023-02-09T23:26:07.760Z,99.90
2023-02-09T23:28:34.747Z,99.90
2023-02-09T23:31:07.731Z,99.90
2023-02-09T23:33:36.097Z,1.00
2023-02-09T23:36:07.423Z,99.90
2023-02-09T23:38:34.554Z,1.00
2023-02-09T23:41:06.812Z,1.00
2023-02-09T23:43:34.424Z,99.90
2023-02-09T23:46:06.001Z,99.90
2023-02-09T23:48:33.254Z,99.90
2023-02-09T23:51:05.094Z,99.90
2023-02-09T23:53:32.184Z,99.90
2023-02-09T23:56:03.451Z,99.90
2023-02-09T23:58:31.782Z,99.90
